Rossville, Tennessee
Current Conditions -  °F | °C
As of 12:55 AM on Thursday 23 Oct 2014 (Local Time) from KOLV Reporting Station
Clear Clear  
Wind Chill:   Ceiling: Unl
Heat Index:   Visibility: 9mi
Dew Point:   Wind: 3mph
Humidity: 100%   Direction: 50°NE
Pressure: 30.19"   Gusts: NA
Location:  35.05°N, 89.54°W
Report Text: KOLV 230555Z AUTO 05003KT 9SM CLR 08/08 A3019 RMK A01 P000
Loading
Personal Weather Stations






























Interactive Weather Map
Tropical Storm Tracking
New forecast layout! Learn more

10-Day Weather Forecast

Advertisements
Track Severe Weather on mobile